sensor_id;sensor_type;location;lat;lon;timestamp;P1;durP1;ratioP1;P2;durP2;ratioP2
15833;SDS011;8017;50.812;4.934;2023-04-27T00:02:59;11.27;;;9.03;;
15833;SDS011;8017;50.812;4.934;2023-04-27T00:06:04;12.77;;;9.60;;
15833;SDS011;8017;50.812;4.934;2023-04-27T00:09:06;13.03;;;8.93;;
15833;SDS011;8017;50.812;4.934;2023-04-27T00:12:08;12.13;;;8.57;;
15833;SDS011;8017;50.812;4.934;2023-04-27T00:15:11;12.03;;;9.23;;
15833;SDS011;8017;50.812;4.934;2023-04-27T00:18:13;15.03;;;9.50;;
15833;SDS011;8017;50.812;4.934;2023-04-27T00:21:15;11.07;;;8.43;;
15833;SDS011;8017;50.812;4.934;2023-04-27T00:24:17;15.43;;;9.07;;
15833;SDS011;8017;50.812;4.934;2023-04-27T00:27:19;13.53;;;9.30;;
15833;SDS011;8017;50.812;4.934;2023-04-27T00:30:22;14.60;;;9.03;;
15833;SDS011;8017;50.812;4.934;2023-04-27T00:33:24;14.57;;;9.70;;
15833;SDS011;8017;50.812;4.934;2023-04-27T00:36:26;13.43;;;8.80;;
15833;SDS011;8017;50.812;4.934;2023-04-27T00:39:28;11.57;;;8.67;;
15833;SDS011;8017;50.812;4.934;2023-04-27T00:42:30;12.20;;;9.10;;
15833;SDS011;8017;50.812;4.934;2023-04-27T00:45:35;13.57;;;9.63;;
15833;SDS011;8017;50.812;4.934;2023-04-27T00:48:41;13.03;;;9.17;;
15833;SDS011;8017;50.812;4.934;2023-04-27T00:51:44;12.53;;;9.53;;
15833;SDS011;8017;50.812;4.934;2023-04-27T00:54:46;14.83;;;9.67;;
15833;SDS011;8017;50.812;4.934;2023-04-27T00:57:51;11.53;;;9.03;;
15833;SDS011;8017;50.812;4.934;2023-04-27T01:00:54;12.23;;;8.87;;
15833;SDS011;8017;50.812;4.934;2023-04-27T01:03:57;14.77;;;10.17;;
15833;SDS011;8017;50.812;4.934;2023-04-27T01:06:58;13.07;;;8.87;;
15833;SDS011;8017;50.812;4.934;2023-04-27T01:10:02;14.63;;;8.90;;
15833;SDS011;8017;50.812;4.934;2023-04-27T01:13:04;15.83;;;9.07;;
15833;SDS011;8017;50.812;4.934;2023-04-27T01:16:08;16.47;;;9.17;;
15833;SDS011;8017;50.812;4.934;2023-04-27T01:19:10;11.60;;;8.43;;
15833;SDS011;8017;50.812;4.934;2023-04-27T01:22:12;14.23;;;9.13;;
15833;SDS011;8017;50.812;4.934;2023-04-27T01:25:16;12.87;;;8.93;;
15833;SDS011;8017;50.812;4.934;2023-04-27T01:28:19;12.73;;;9.87;;
15833;SDS011;8017;50.812;4.934;2023-04-27T01:31:21;13.10;;;9.37;;
15833;SDS011;8017;50.812;4.934;2023-04-27T01:34:23;11.60;;;9.60;;
15833;SDS011;8017;50.812;4.934;2023-04-27T01:37:25;12.37;;;9.30;;
15833;SDS011;8017;50.812;4.934;2023-04-27T01:40:28;13.07;;;9.23;;
15833;SDS011;8017;50.812;4.934;2023-04-27T01:43:30;13.83;;;9.47;;
15833;SDS011;8017;50.812;4.934;2023-04-27T01:46:32;15.10;;;10.40;;
15833;SDS011;8017;50.812;4.934;2023-04-27T01:49:34;16.37;;;10.10;;
15833;SDS011;8017;50.812;4.934;2023-04-27T01:52:36;13.53;;;9.80;;
15833;SDS011;8017;50.812;4.934;2023-04-27T01:55:39;12.60;;;9.90;;
15833;SDS011;8017;50.812;4.934;2023-04-27T01:58:41;14.47;;;9.80;;
15833;SDS011;8017;50.812;4.934;2023-04-27T02:01:43;11.83;;;9.57;;
15833;SDS011;8017;50.812;4.934;2023-04-27T02:04:45;12.77;;;9.00;;
15833;SDS011;8017;50.812;4.934;2023-04-27T02:07:47;14.90;;;10.17;;
15833;SDS011;8017;50.812;4.934;2023-04-27T02:10:50;13.67;;;9.67;;
15833;SDS011;8017;50.812;4.934;2023-04-27T02:13:52;13.77;;;10.07;;
15833;SDS011;8017;50.812;4.934;2023-04-27T02:16:54;16.13;;;10.23;;
15833;SDS011;8017;50.812;4.934;2023-04-27T02:19:56;10.97;;;9.63;;
15833;SDS011;8017;50.812;4.934;2023-04-27T02:22:58;15.40;;;9.53;;
15833;SDS011;8017;50.812;4.934;2023-04-27T02:26:02;13.90;;;9.33;;
15833;SDS011;8017;50.812;4.934;2023-04-27T02:29:04;13.70;;;10.30;;
15833;SDS011;8017;50.812;4.934;2023-04-27T02:32:06;17.83;;;10.43;;
15833;SDS011;8017;50.812;4.934;2023-04-27T02:35:08;13.53;;;10.20;;
15833;SDS011;8017;50.812;4.934;2023-04-27T02:38:11;16.13;;;10.27;;
15833;SDS011;8017;50.812;4.934;2023-04-27T02:41:14;15.07;;;9.90;;
15833;SDS011;8017;50.812;4.934;2023-04-27T02:44:16;16.17;;;10.60;;
15833;SDS011;8017;50.812;4.934;2023-04-27T02:47:18;17.27;;;10.13;;
15833;SDS011;8017;50.812;4.934;2023-04-27T02:50:20;17.50;;;10.43;;
15833;SDS011;8017;50.812;4.934;2023-04-27T02:53:22;14.93;;;11.00;;
15833;SDS011;8017;50.812;4.934;2023-04-27T02:56:25;14.03;;;10.73;;
15833;SDS011;8017;50.812;4.934;2023-04-27T02:59:27;17.30;;;10.97;;
15833;SDS011;8017;50.812;4.934;2023-04-27T03:02:29;17.50;;;10.50;;
15833;SDS011;8017;50.812;4.934;2023-04-27T03:05:31;19.40;;;10.93;;
15833;SDS011;8017;50.812;4.934;2023-04-27T03:08:33;13.10;;;10.53;;
15833;SDS011;8017;50.812;4.934;2023-04-27T03:11:36;13.97;;;10.03;;
15833;SDS011;8017;50.812;4.934;2023-04-27T03:14:38;14.30;;;10.43;;
15833;SDS011;8017;50.812;4.934;2023-04-27T03:17:40;14.77;;;10.80;;
15833;SDS011;8017;50.812;4.934;2023-04-27T03:20:42;15.80;;;10.57;;
15833;SDS011;8017;50.812;4.934;2023-04-27T03:23:44;12.43;;;9.67;;
15833;SDS011;8017;50.812;4.934;2023-04-27T03:26:47;14.50;;;10.17;;
15833;SDS011;8017;50.812;4.934;2023-04-27T03:29:50;15.93;;;11.37;;
15833;SDS011;8017;50.812;4.934;2023-04-27T03:32:52;18.03;;;10.83;;
15833;SDS011;8017;50.812;4.934;2023-04-27T03:35:55;16.20;;;10.43;;
15833;SDS011;8017;50.812;4.934;2023-04-27T03:38:57;13.13;;;10.33;;
15833;SDS011;8017;50.812;4.934;2023-04-27T03:42:01;14.40;;;10.40;;
15833;SDS011;8017;50.812;4.934;2023-04-27T03:45:03;15.93;;;10.80;;
15833;SDS011;8017;50.812;4.934;2023-04-27T03:48:06;18.37;;;11.27;;
15833;SDS011;8017;50.812;4.934;2023-04-27T03:51:08;15.77;;;10.73;;
15833;SDS011;8017;50.812;4.934;2023-04-27T03:54:09;15.17;;;11.07;;
15833;SDS011;8017;50.812;4.934;2023-04-27T03:57:13;16.20;;;11.70;;
15833;SDS011;8017;50.812;4.934;2023-04-27T04:00:15;14.33;;;10.97;;
15833;SDS011;8017;50.812;4.934;2023-04-27T04:03:18;16.30;;;11.23;;
15833;SDS011;8017;50.812;4.934;2023-04-27T04:06:20;20.37;;;11.13;;
15833;SDS011;8017;50.812;4.934;2023-04-27T04:09:22;16.60;;;11.50;;
15833;SDS011;8017;50.812;4.934;2023-04-27T04:12:25;18.30;;;11.40;;
15833;SDS011;8017;50.812;4.934;2023-04-27T04:15:27;17.57;;;10.90;;
15833;SDS011;8017;50.812;4.934;2023-04-27T04:18:29;16.60;;;10.80;;
15833;SDS011;8017;50.812;4.934;2023-04-27T04:21:30;17.10;;;10.73;;
15833;SDS011;8017;50.812;4.934;2023-04-27T04:24:33;15.70;;;10.90;;
15833;SDS011;8017;50.812;4.934;2023-04-27T04:27:36;16.77;;;12.27;;
15833;SDS011;8017;50.812;4.934;2023-04-27T04:30:38;17.73;;;12.00;;
15833;SDS011;8017;50.812;4.934;2023-04-27T04:33:40;18.43;;;11.53;;
15833;SDS011;8017;50.812;4.934;2023-04-27T04:36:42;15.63;;;11.20;;
15833;SDS011;8017;50.812;4.934;2023-04-27T04:39:44;15.27;;;11.33;;
15833;SDS011;8017;50.812;4.934;2023-04-27T04:42:47;18.23;;;11.80;;
15833;SDS011;8017;50.812;4.934;2023-04-27T04:45:49;18.73;;;12.30;;
15833;SDS011;8017;50.812;4.934;2023-04-27T04:48:51;16.57;;;11.47;;
15833;SDS011;8017;50.812;4.934;2023-04-27T04:51:54;14.83;;;11.20;;
15833;SDS011;8017;50.812;4.934;2023-04-27T04:54:55;18.37;;;11.97;;
15833;SDS011;8017;50.812;4.934;2023-04-27T04:57:59;18.07;;;11.60;;
15833;SDS011;8017;50.812;4.934;2023-04-27T05:01:01;14.93;;;11.00;;
15833;SDS011;8017;50.812;4.934;2023-04-27T05:04:03;19.77;;;11.77;;
15833;SDS011;8017;50.812;4.934;2023-04-27T05:07:05;16.10;;;12.17;;
15833;SDS011;8017;50.812;4.934;2023-04-27T05:10:07;20.53;;;12.63;;
15833;SDS011;8017;50.812;4.934;2023-04-27T05:13:10;15.87;;;11.73;;
15833;SDS011;8017;50.812;4.934;2023-04-27T05:16:12;17.63;;;12.83;;
15833;SDS011;8017;50.812;4.934;2023-04-27T05:19:14;20.57;;;12.07;;
15833;SDS011;8017;50.812;4.934;2023-04-27T05:22:17;19.80;;;10.97;;
15833;SDS011;8017;50.812;4.934;2023-04-27T05:25:19;19.53;;;12.27;;
15833;SDS011;8017;50.812;4.934;2023-04-27T05:28:22;17.40;;;11.60;;
15833;SDS011;8017;50.812;4.934;2023-04-27T05:31:24;14.63;;;11.10;;
15833;SDS011;8017;50.812;4.934;2023-04-27T05:34:27;17.73;;;12.13;;
15833;SDS011;8017;50.812;4.934;2023-04-27T05:37:28;17.83;;;12.23;;
15833;SDS011;8017;50.812;4.934;2023-04-27T05:40:30;17.20;;;11.57;;
15833;SDS011;8017;50.812;4.934;2023-04-27T05:43:34;19.07;;;11.97;;
15833;SDS011;8017;50.812;4.934;2023-04-27T05:46:37;19.17;;;12.03;;
15833;SDS011;8017;50.812;4.934;2023-04-27T05:49:39;15.87;;;11.37;;
15833;SDS011;8017;50.812;4.934;2023-04-27T05:52:41;16.90;;;11.67;;
15833;SDS011;8017;50.812;4.934;2023-04-27T05:55:43;19.37;;;11.73;;
15833;SDS011;8017;50.812;4.934;2023-04-27T05:58:46;20.57;;;12.67;;
15833;SDS011;8017;50.812;4.934;2023-04-27T06:01:48;14.87;;;11.73;;
15833;SDS011;8017;50.812;4.934;2023-04-27T06:04:50;17.40;;;11.90;;
15833;SDS011;8017;50.812;4.934;2023-04-27T06:07:52;20.83;;;12.60;;
15833;SDS011;8017;50.812;4.934;2023-04-27T06:10:54;19.07;;;11.47;;
15833;SDS011;8017;50.812;4.934;2023-04-27T06:13:58;19.70;;;11.97;;
15833;SDS011;8017;50.812;4.934;2023-04-27T06:17:00;15.33;;;10.40;;
15833;SDS011;8017;50.812;4.934;2023-04-27T06:20:02;15.47;;;11.10;;
15833;SDS011;8017;50.812;4.934;2023-04-27T06:23:05;16.97;;;12.07;;
15833;SDS011;8017;50.812;4.934;2023-04-27T06:26:07;16.50;;;11.80;;
15833;SDS011;8017;50.812;4.934;2023-04-27T06:29:11;14.80;;;10.90;;
15833;SDS011;8017;50.812;4.934;2023-04-27T06:32:13;17.47;;;11.07;;
15833;SDS011;8017;50.812;4.934;2023-04-27T06:35:15;16.77;;;11.10;;
15833;SDS011;8017;50.812;4.934;2023-04-27T06:38:17;19.83;;;11.67;;
15833;SDS011;8017;50.812;4.934;2023-04-27T06:41:19;15.83;;;11.00;;
15833;SDS011;8017;50.812;4.934;2023-04-27T06:44:23;16.23;;;10.80;;
15833;SDS011;8017;50.812;4.934;2023-04-27T06:47:25;14.40;;;10.87;;
15833;SDS011;8017;50.812;4.934;2023-04-27T06:50:26;19.70;;;11.30;;
15833;SDS011;8017;50.812;4.934;2023-04-27T06:53:29;16.80;;;11.33;;
15833;SDS011;8017;50.812;4.934;2023-04-27T06:56:31;15.50;;;10.67;;
15833;SDS011;8017;50.812;4.934;2023-04-27T06:59:35;16.73;;;10.43;;
15833;SDS011;8017;50.812;4.934;2023-04-27T07:02:37;13.87;;;10.13;;
15833;SDS011;8017;50.812;4.934;2023-04-27T07:05:38;20.57;;;10.30;;
15833;SDS011;8017;50.812;4.934;2023-04-27T07:08:40;16.33;;;10.20;;
15833;SDS011;8017;50.812;4.934;2023-04-27T07:11:43;18.33;;;10.77;;
15833;SDS011;8017;50.812;4.934;2023-04-27T07:14:46;22.10;;;11.53;;
15833;SDS011;8017;50.812;4.934;2023-04-27T07:17:50;16.17;;;11.20;;
15833;SDS011;8017;50.812;4.934;2023-04-27T07:20:53;18.73;;;10.67;;
15833;SDS011;8017;50.812;4.934;2023-04-27T07:23:56;14.37;;;10.87;;
15833;SDS011;8017;50.812;4.934;2023-04-27T07:26:58;17.37;;;11.07;;
15833;SDS011;8017;50.812;4.934;2023-04-27T07:30:04;16.23;;;11.57;;
15833;SDS011;8017;50.812;4.934;2023-04-27T07:33:08;17.83;;;12.37;;
15833;SDS011;8017;50.812;4.934;2023-04-27T07:36:10;19.30;;;12.00;;
15833;SDS011;8017;50.812;4.934;2023-04-27T07:39:12;17.67;;;12.40;;
15833;SDS011;8017;50.812;4.934;2023-04-27T07:42:14;16.40;;;12.43;;
15833;SDS011;8017;50.812;4.934;2023-04-27T07:45:17;20.13;;;11.80;;
15833;SDS011;8017;50.812;4.934;2023-04-27T07:48:20;19.53;;;12.17;;
15833;SDS011;8017;50.812;4.934;2023-04-27T07:51:22;17.77;;;12.50;;
15833;SDS011;8017;50.812;4.934;2023-04-27T07:54:27;19.10;;;12.57;;
15833;SDS011;8017;50.812;4.934;2023-04-27T07:57:29;20.27;;;13.47;;
15833;SDS011;8017;50.812;4.934;2023-04-27T08:00:32;19.13;;;12.73;;
15833;SDS011;8017;50.812;4.934;2023-04-27T08:03:34;19.07;;;12.17;;
15833;SDS011;8017;50.812;4.934;2023-04-27T08:06:36;19.60;;;13.43;;
15833;SDS011;8017;50.812;4.934;2023-04-27T08:09:38;20.37;;;13.70;;
15833;SDS011;8017;50.812;4.934;2023-04-27T08:12:40;17.23;;;13.17;;
15833;SDS011;8017;50.812;4.934;2023-04-27T08:15:43;19.80;;;13.60;;
15833;SDS011;8017;50.812;4.934;2023-04-27T08:18:45;20.53;;;13.97;;
15833;SDS011;8017;50.812;4.934;2023-04-27T08:21:47;19.13;;;13.50;;
15833;SDS011;8017;50.812;4.934;2023-04-27T08:24:49;18.17;;;13.20;;
15833;SDS011;8017;50.812;4.934;2023-04-27T08:27:51;22.30;;;13.20;;
15833;SDS011;8017;50.812;4.934;2023-04-27T08:30:54;17.47;;;12.73;;
15833;SDS011;8017;50.812;4.934;2023-04-27T08:33:56;16.03;;;12.83;;
15833;SDS011;8017;50.812;4.934;2023-04-27T08:36:58;20.30;;;14.77;;
15833;SDS011;8017;50.812;4.934;2023-04-27T08:40:03;18.80;;;13.83;;
15833;SDS011;8017;50.812;4.934;2023-04-27T08:43:06;18.27;;;13.67;;
15833;SDS011;8017;50.812;4.934;2023-04-27T08:46:10;20.47;;;13.57;;
15833;SDS011;8017;50.812;4.934;2023-04-27T08:49:12;17.93;;;12.90;;
15833;SDS011;8017;50.812;4.934;2023-04-27T08:52:14;21.80;;;13.27;;
15833;SDS011;8017;50.812;4.934;2023-04-27T08:55:17;18.17;;;13.60;;
15833;SDS011;8017;50.812;4.934;2023-04-27T08:58:19;19.17;;;13.27;;
15833;SDS011;8017;50.812;4.934;2023-04-27T09:01:23;18.07;;;13.27;;
15833;SDS011;8017;50.812;4.934;2023-04-27T09:04:35;17.77;;;12.97;;
15833;SDS011;8017;50.812;4.934;2023-04-27T09:07:37;19.40;;;13.17;;
15833;SDS011;8017;50.812;4.934;2023-04-27T09:10:42;18.70;;;12.83;;
15833;SDS011;8017;50.812;4.934;2023-04-27T09:13:45;23.37;;;12.20;;
15833;SDS011;8017;50.812;4.934;2023-04-27T09:16:53;18.03;;;12.83;;
15833;SDS011;8017;50.812;4.934;2023-04-27T09:20:04;17.27;;;12.87;;
15833;SDS011;8017;50.812;4.934;2023-04-27T09:23:09;17.30;;;11.90;;
15833;SDS011;8017;50.812;4.934;2023-04-27T09:26:17;18.90;;;13.03;;
15833;SDS011;8017;50.812;4.934;2023-04-27T09:29:30;16.47;;;12.00;;
15833;SDS011;8017;50.812;4.934;2023-04-27T09:32:34;15.13;;;11.47;;
15833;SDS011;8017;50.812;4.934;2023-04-27T09:35:37;17.60;;;11.50;;
15833;SDS011;8017;50.812;4.934;2023-04-27T09:38:42;13.60;;;10.57;;
15833;SDS011;8017;50.812;4.934;2023-04-27T09:41:44;16.87;;;11.10;;
15833;SDS011;8017;50.812;4.934;2023-04-27T09:44:47;16.13;;;11.30;;
15833;SDS011;8017;50.812;4.934;2023-04-27T09:47:51;13.40;;;11.07;;
15833;SDS011;8017;50.812;4.934;2023-04-27T09:50:53;17.87;;;11.60;;
15833;SDS011;8017;50.812;4.934;2023-04-27T09:53:56;14.33;;;10.03;;
15833;SDS011;8017;50.812;4.934;2023-04-27T09:57:04;17.07;;;11.47;;
15833;SDS011;8017;50.812;4.934;2023-04-27T10:00:16;15.27;;;10.17;;
15833;SDS011;8017;50.812;4.934;2023-04-27T10:03:36;15.43;;;10.53;;
15833;SDS011;8017;50.812;4.934;2023-04-27T10:06:56;14.73;;;10.57;;
15833;SDS011;8017;50.812;4.934;2023-04-27T10:10:00;16.53;;;11.33;;
15833;SDS011;8017;50.812;4.934;2023-04-27T10:13:03;15.03;;;11.03;;
15833;SDS011;8017;50.812;4.934;2023-04-27T10:16:13;16.07;;;10.33;;
15833;SDS011;8017;50.812;4.934;2023-04-27T10:19:17;12.30;;;10.03;;
15833;SDS011;8017;50.812;4.934;2023-04-27T10:22:20;14.90;;;10.07;;
15833;SDS011;8017;50.812;4.934;2023-04-27T10:25:24;14.70;;;10.20;;
15833;SDS011;8017;50.812;4.934;2023-04-27T10:28:28;15.77;;;10.73;;
15833;SDS011;8017;50.812;4.934;2023-04-27T10:31:42;12.70;;;10.20;;
15833;SDS011;8017;50.812;4.934;2023-04-27T10:34:46;16.60;;;9.13;;
15833;SDS011;8017;50.812;4.934;2023-04-27T10:37:48;15.60;;;10.97;;
15833;SDS011;8017;50.812;4.934;2023-04-27T10:40:54;17.20;;;10.47;;
15833;SDS011;8017;50.812;4.934;2023-04-27T10:43:57;12.20;;;9.60;;
15833;SDS011;8017;50.812;4.934;2023-04-27T10:47:14;13.90;;;9.93;;
15833;SDS011;8017;50.812;4.934;2023-04-27T10:50:20;11.90;;;9.27;;
15833;SDS011;8017;50.812;4.934;2023-04-27T10:53:23;10.93;;;8.93;;
15833;SDS011;8017;50.812;4.934;2023-04-27T10:56:26;13.00;;;8.87;;
15833;SDS011;8017;50.812;4.934;2023-04-27T10:59:28;14.13;;;10.07;;
15833;SDS011;8017;50.812;4.934;2023-04-27T11:02:30;14.87;;;9.20;;
15833;SDS011;8017;50.812;4.934;2023-04-27T11:05:33;12.67;;;9.70;;
15833;SDS011;8017;50.812;4.934;2023-04-27T11:08:42;12.27;;;8.67;;
15833;SDS011;8017;50.812;4.934;2023-04-27T11:11:44;12.10;;;8.67;;
15833;SDS011;8017;50.812;4.934;2023-04-27T11:14:46;11.33;;;7.67;;
15833;SDS011;8017;50.812;4.934;2023-04-27T11:17:48;11.73;;;8.33;;
15833;SDS011;8017;50.812;4.934;2023-04-27T11:20:53;12.77;;;9.37;;
15833;SDS011;8017;50.812;4.934;2023-04-27T11:24:06;11.57;;;9.17;;
15833;SDS011;8017;50.812;4.934;2023-04-27T11:27:09;15.17;;;10.20;;
15833;SDS011;8017;50.812;4.934;2023-04-27T11:30:17;11.50;;;8.40;;
15833;SDS011;8017;50.812;4.934;2023-04-27T11:33:21;10.83;;;8.60;;
15833;SDS011;8017;50.812;4.934;2023-04-27T11:36:24;11.23;;;8.07;;
15833;SDS011;8017;50.812;4.934;2023-04-27T11:39:27;11.90;;;8.20;;
15833;SDS011;8017;50.812;4.934;2023-04-27T11:42:29;11.97;;;9.47;;
15833;SDS011;8017;50.812;4.934;2023-04-27T11:45:31;11.57;;;8.87;;
15833;SDS011;8017;50.812;4.934;2023-04-27T11:48:34;9.83;;;8.30;;
15833;SDS011;8017;50.812;4.934;2023-04-27T11:51:38;11.40;;;8.87;;
15833;SDS011;8017;50.812;4.934;2023-04-27T11:54:45;12.00;;;9.77;;
15833;SDS011;8017;50.812;4.934;2023-04-27T11:57:48;14.67;;;11.03;;
15833;SDS011;8017;50.812;4.934;2023-04-27T12:00:57;14.07;;;9.43;;
15833;SDS011;8017;50.812;4.934;2023-04-27T12:04:01;21.37;;;15.80;;
15833;SDS011;8017;50.812;4.934;2023-04-27T12:07:04;14.30;;;10.43;;
15833;SDS011;8017;50.812;4.934;2023-04-27T12:10:06;14.97;;;10.77;;
15833;SDS011;8017;50.812;4.934;2023-04-27T12:13:09;13.23;;;9.20;;
15833;SDS011;8017;50.812;4.934;2023-04-27T12:16:11;13.77;;;10.30;;
15833;SDS011;8017;50.812;4.934;2023-04-27T12:19:13;14.70;;;11.43;;
15833;SDS011;8017;50.812;4.934;2023-04-27T12:22:17;12.77;;;10.77;;
15833;SDS011;8017;50.812;4.934;2023-04-27T12:25:19;15.77;;;10.90;;
15833;SDS011;8017;50.812;4.934;2023-04-27T12:28:21;13.80;;;10.30;;
15833;SDS011;8017;50.812;4.934;2023-04-27T12:31:22;16.67;;;10.40;;
15833;SDS011;8017;50.812;4.934;2023-04-27T12:34:24;13.83;;;9.93;;
15833;SDS011;8017;50.812;4.934;2023-04-27T12:37:28;13.73;;;9.27;;
15833;SDS011;8017;50.812;4.934;2023-04-27T12:40:30;13.90;;;9.43;;
15833;SDS011;8017;50.812;4.934;2023-04-27T12:43:34;12.90;;;9.70;;
15833;SDS011;8017;50.812;4.934;2023-04-27T12:46:37;18.93;;;10.50;;
15833;SDS011;8017;50.812;4.934;2023-04-27T12:49:39;13.03;;;10.17;;
15833;SDS011;8017;50.812;4.934;2023-04-27T12:52:42;27.70;;;12.10;;
15833;SDS011;8017;50.812;4.934;2023-04-27T12:55:44;15.83;;;11.17;;
15833;SDS011;8017;50.812;4.934;2023-04-27T12:58:46;13.90;;;9.57;;
15833;SDS011;8017;50.812;4.934;2023-04-27T13:01:48;13.23;;;10.23;;
15833;SDS011;8017;50.812;4.934;2023-04-27T13:04:50;14.17;;;10.20;;
15833;SDS011;8017;50.812;4.934;2023-04-27T13:07:54;15.70;;;9.67;;
15833;SDS011;8017;50.812;4.934;2023-04-27T13:10:56;13.17;;;10.33;;
15833;SDS011;8017;50.812;4.934;2023-04-27T13:13:58;13.83;;;11.13;;
15833;SDS011;8017;50.812;4.934;2023-04-27T13:17:01;13.90;;;9.77;;
15833;SDS011;8017;50.812;4.934;2023-04-27T13:20:03;15.77;;;10.13;;
15833;SDS011;8017;50.812;4.934;2023-04-27T13:23:07;14.03;;;9.33;;
15833;SDS011;8017;50.812;4.934;2023-04-27T13:26:09;14.20;;;10.77;;
15833;SDS011;8017;50.812;4.934;2023-04-27T13:29:11;14.70;;;10.63;;
15833;SDS011;8017;50.812;4.934;2023-04-27T13:32:13;13.67;;;10.13;;
15833;SDS011;8017;50.812;4.934;2023-04-27T13:35:15;15.13;;;10.90;;
15833;SDS011;8017;50.812;4.934;2023-04-27T13:38:19;17.10;;;11.03;;
15833;SDS011;8017;50.812;4.934;2023-04-27T13:41:21;14.00;;;10.73;;
15833;SDS011;8017;50.812;4.934;2023-04-27T13:44:23;11.80;;;10.03;;
15833;SDS011;8017;50.812;4.934;2023-04-27T13:47:24;15.60;;;10.63;;
15833;SDS011;8017;50.812;4.934;2023-04-27T13:50:28;14.27;;;10.80;;
15833;SDS011;8017;50.812;4.934;2023-04-27T13:53:32;14.87;;;11.63;;
15833;SDS011;8017;50.812;4.934;2023-04-27T13:56:34;13.27;;;10.07;;
15833;SDS011;8017;50.812;4.934;2023-04-27T13:59:37;16.43;;;11.10;;
15833;SDS011;8017;50.812;4.934;2023-04-27T14:02:38;12.80;;;10.87;;
15833;SDS011;8017;50.812;4.934;2023-04-27T14:05:41;15.60;;;12.20;;
15833;SDS011;8017;50.812;4.934;2023-04-27T14:08:44;16.00;;;12.20;;
15833;SDS011;8017;50.812;4.934;2023-04-27T14:11:46;14.80;;;11.50;;
15833;SDS011;8017;50.812;4.934;2023-04-27T14:14:48;15.87;;;11.37;;
15833;SDS011;8017;50.812;4.934;2023-04-27T14:17:51;19.90;;;13.40;;
15833;SDS011;8017;50.812;4.934;2023-04-27T14:20:52;17.37;;;12.03;;
15833;SDS011;8017;50.812;4.934;2023-04-27T14:23:56;17.93;;;12.30;;
15833;SDS011;8017;50.812;4.934;2023-04-27T14:26:58;16.30;;;12.10;;
15833;SDS011;8017;50.812;4.934;2023-04-27T14:30:01;17.67;;;12.87;;
15833;SDS011;8017;50.812;4.934;2023-04-27T14:33:03;12.73;;;11.37;;
15833;SDS011;8017;50.812;4.934;2023-04-27T14:36:05;16.53;;;12.90;;
15833;SDS011;8017;50.812;4.934;2023-04-27T14:39:09;16.97;;;11.97;;
15833;SDS011;8017;50.812;4.934;2023-04-27T14:42:11;19.13;;;12.70;;
15833;SDS011;8017;50.812;4.934;2023-04-27T14:45:13;17.70;;;11.67;;
15833;SDS011;8017;50.812;4.934;2023-04-27T14:48:17;15.73;;;11.40;;
15833;SDS011;8017;50.812;4.934;2023-04-27T14:51:19;15.20;;;11.97;;
15833;SDS011;8017;50.812;4.934;2023-04-27T14:54:23;16.17;;;13.33;;
15833;SDS011;8017;50.812;4.934;2023-04-27T14:57:25;18.20;;;12.97;;
15833;SDS011;8017;50.812;4.934;2023-04-27T15:00:27;16.37;;;12.90;;
15833;SDS011;8017;50.812;4.934;2023-04-27T15:03:29;18.37;;;12.17;;
15833;SDS011;8017;50.812;4.934;2023-04-27T15:06:31;18.93;;;13.23;;
15833;SDS011;8017;50.812;4.934;2023-04-27T15:09:34;15.03;;;12.47;;
15833;SDS011;8017;50.812;4.934;2023-04-27T15:12:36;15.73;;;14.13;;
15833;SDS011;8017;50.812;4.934;2023-04-27T15:15:38;18.20;;;13.37;;
15833;SDS011;8017;50.812;4.934;2023-04-27T15:18:40;18.07;;;12.83;;
15833;SDS011;8017;50.812;4.934;2023-04-27T15:21:44;15.83;;;13.43;;
15833;SDS011;8017;50.812;4.934;2023-04-27T15:24:49;18.87;;;14.33;;
15833;SDS011;8017;50.812;4.934;2023-04-27T15:27:51;19.33;;;13.80;;
15833;SDS011;8017;50.812;4.934;2023-04-27T15:30:53;16.97;;;13.60;;
15833;SDS011;8017;50.812;4.934;2023-04-27T15:33:55;17.73;;;13.73;;
15833;SDS011;8017;50.812;4.934;2023-04-27T15:36:57;16.40;;;13.43;;
15833;SDS011;8017;50.812;4.934;2023-04-27T15:40:01;19.03;;;13.90;;
15833;SDS011;8017;50.812;4.934;2023-04-27T15:43:03;20.37;;;13.63;;
15833;SDS011;8017;50.812;4.934;2023-04-27T15:46:05;18.03;;;13.37;;
15833;SDS011;8017;50.812;4.934;2023-04-27T15:49:07;18.63;;;13.50;;
15833;SDS011;8017;50.812;4.934;2023-04-27T15:52:11;16.90;;;12.77;;
15833;SDS011;8017;50.812;4.934;2023-04-27T15:55:14;17.63;;;13.93;;
15833;SDS011;8017;50.812;4.934;2023-04-27T15:58:16;19.47;;;14.10;;
15833;SDS011;8017;50.812;4.934;2023-04-27T16:01:18;16.17;;;13.63;;
15833;SDS011;8017;50.812;4.934;2023-04-27T16:04:20;20.00;;;14.47;;
15833;SDS011;8017;50.812;4.934;2023-04-27T16:07:23;16.93;;;13.97;;
15833;SDS011;8017;50.812;4.934;2023-04-27T16:10:26;18.50;;;14.03;;
15833;SDS011;8017;50.812;4.934;2023-04-27T16:13:28;20.23;;;14.03;;
15833;SDS011;8017;50.812;4.934;2023-04-27T16:16:31;18.00;;;13.77;;
15833;SDS011;8017;50.812;4.934;2023-04-27T16:19:33;20.90;;;14.33;;
15833;SDS011;8017;50.812;4.934;2023-04-27T16:22:36;19.13;;;14.13;;
15833;SDS011;8017;50.812;4.934;2023-04-27T16:25:39;23.13;;;15.77;;
15833;SDS011;8017;50.812;4.934;2023-04-27T16:28:41;17.67;;;15.00;;
15833;SDS011;8017;50.812;4.934;2023-04-27T16:31:43;24.03;;;14.80;;
15833;SDS011;8017;50.812;4.934;2023-04-27T16:34:45;17.67;;;13.93;;
15833;SDS011;8017;50.812;4.934;2023-04-27T16:37:47;18.63;;;15.13;;
15833;SDS011;8017;50.812;4.934;2023-04-27T16:40:51;17.90;;;14.03;;
15833;SDS011;8017;50.812;4.934;2023-04-27T16:43:55;16.17;;;14.20;;
15833;SDS011;8017;50.812;4.934;2023-04-27T16:46:56;20.00;;;15.37;;
15833;SDS011;8017;50.812;4.934;2023-04-27T16:49:58;21.83;;;14.73;;
15833;SDS011;8017;50.812;4.934;2023-04-27T16:53:04;19.67;;;14.40;;
15833;SDS011;8017;50.812;4.934;2023-04-27T16:56:08;16.63;;;13.57;;
15833;SDS011;8017;50.812;4.934;2023-04-27T16:59:11;17.53;;;14.47;;
15833;SDS011;8017;50.812;4.934;2023-04-27T17:02:13;19.70;;;14.77;;
15833;SDS011;8017;50.812;4.934;2023-04-27T17:05:15;22.47;;;13.43;;
15833;SDS011;8017;50.812;4.934;2023-04-27T17:08:17;23.20;;;14.33;;
15833;SDS011;8017;50.812;4.934;2023-04-27T17:11:20;18.23;;;13.93;;
15833;SDS011;8017;50.812;4.934;2023-04-27T17:14:23;20.17;;;14.50;;
15833;SDS011;8017;50.812;4.934;2023-04-27T17:17:25;20.80;;;14.07;;
15833;SDS011;8017;50.812;4.934;2023-04-27T17:20:27;18.07;;;14.07;;
15833;SDS011;8017;50.812;4.934;2023-04-27T17:23:29;20.33;;;15.07;;
15833;SDS011;8017;50.812;4.934;2023-04-27T17:26:34;21.57;;;15.23;;
15833;SDS011;8017;50.812;4.934;2023-04-27T17:29:37;19.57;;;13.50;;
15833;SDS011;8017;50.812;4.934;2023-04-27T17:32:39;20.50;;;15.03;;
15833;SDS011;8017;50.812;4.934;2023-04-27T17:35:41;22.00;;;15.47;;
15833;SDS011;8017;50.812;4.934;2023-04-27T17:38:43;18.63;;;15.37;;
15833;SDS011;8017;50.812;4.934;2023-04-27T17:41:47;23.50;;;14.60;;
15833;SDS011;8017;50.812;4.934;2023-04-27T17:44:49;21.70;;;15.23;;
15833;SDS011;8017;50.812;4.934;2023-04-27T17:47:50;19.77;;;15.47;;
15833;SDS011;8017;50.812;4.934;2023-04-27T17:50:52;20.60;;;16.07;;
15833;SDS011;8017;50.812;4.934;2023-04-27T17:53:54;21.13;;;15.47;;
15833;SDS011;8017;50.812;4.934;2023-04-27T17:56:58;22.57;;;15.60;;
15833;SDS011;8017;50.812;4.934;2023-04-27T18:00:00;22.77;;;15.93;;
15833;SDS011;8017;50.812;4.934;2023-04-27T18:03:03;23.03;;;16.07;;
15833;SDS011;8017;50.812;4.934;2023-04-27T18:06:05;23.10;;;16.13;;
15833;SDS011;8017;50.812;4.934;2023-04-27T18:09:07;20.43;;;15.50;;
15833;SDS011;8017;50.812;4.934;2023-04-27T18:12:11;23.47;;;15.90;;